createdAt,value
2023-05-10T00:01:17.175Z,7.18
2023-05-10T00:03:45.239Z,7.18
2023-05-10T00:06:13.304Z,7.17
2023-05-10T00:08:41.492Z,7.16
2023-05-10T00:11:09.548Z,7.16
2023-05-10T00:13:37.513Z,7.14
2023-05-10T00:16:06.060Z,7.13
2023-05-10T00:18:34.117Z,7.11
2023-05-10T00:21:02.184Z,7.08
2023-05-10T00:23:30.124Z,7.05
2023-05-10T00:25:58.282Z,7.02
2023-05-10T00:28:28.216Z,6.99
2023-05-10T00:30:56.606Z,6.96
2023-05-10T00:33:24.754Z,6.95
2023-05-10T00:35:52.835Z,6.96
2023-05-10T00:38:20.904Z,6.96
2023-05-10T00:40:49.428Z,6.98
2023-05-10T00:43:23.885Z,6.99
2023-05-10T00:45:52.078Z,6.98
2023-05-10T00:48:21.476Z,6.97
2023-05-10T00:50:50.618Z,6.94
2023-05-10T00:53:19.032Z,6.89
2023-05-10T00:55:47.557Z,6.84
2023-05-10T00:58:16.984Z,6.78
2023-05-10T01:00:47.644Z,6.70
2023-05-10T01:03:16.191Z,6.64
2023-05-10T01:05:44.357Z,6.62
2023-05-10T01:08:12.589Z,6.63
2023-05-10T01:10:42.753Z,6.64
2023-05-10T01:13:11.076Z,6.66
2023-05-10T01:15:39.978Z,6.67
2023-05-10T01:18:10.483Z,6.64
2023-05-10T01:20:44.675Z,6.61
2023-05-10T01:23:46.605Z,6.56
2023-05-10T01:26:30.037Z,6.47
2023-05-10T01:29:17.936Z,6.37
2023-05-10T01:32:08.697Z,6.27
2023-05-10T01:34:54.353Z,6.17
2023-05-10T01:37:30.188Z,6.12
2023-05-10T01:40:21.081Z,6.11
2023-05-10T01:42:54.530Z,6.13
2023-05-10T01:45:34.957Z,6.13
2023-05-10T01:48:12.946Z,6.12
2023-05-10T01:50:44.796Z,6.12
2023-05-10T01:53:16.140Z,6.10
2023-05-10T01:55:49.426Z,6.09
2023-05-10T01:58:39.581Z,6.08
2023-05-10T02:01:09.766Z,6.06
2023-05-10T02:03:39.685Z,6.06
2023-05-10T02:06:08.938Z,6.04
2023-05-10T02:08:38.216Z,6.02
2023-05-10T02:11:08.931Z,5.98
2023-05-10T02:13:38.695Z,5.95
2023-05-10T02:16:08.433Z,5.92
2023-05-10T02:18:37.874Z,5.88
2023-05-10T02:21:06.147Z,5.85
2023-05-10T02:23:36.144Z,5.83
2023-05-10T02:26:06.897Z,5.80
2023-05-10T02:28:37.290Z,5.79
2023-05-10T02:31:07.344Z,5.78
2023-05-10T02:33:36.900Z,5.77
2023-05-10T02:36:06.495Z,5.77
2023-05-10T02:38:36.193Z,5.76
2023-05-10T02:41:07.152Z,5.75
2023-05-10T02:43:36.702Z,5.72
2023-05-10T02:46:05.152Z,5.69
2023-05-10T02:48:33.365Z,5.65
2023-05-10T02:51:06.827Z,5.60
2023-05-10T02:53:39.933Z,5.52
2023-05-10T02:56:16.435Z,5.44
2023-05-10T02:58:44.536Z,5.36
2023-05-10T03:01:12.750Z,5.31
2023-05-10T03:03:40.938Z,5.26
2023-05-10T03:06:10.800Z,5.21
2023-05-10T03:08:39.207Z,5.15
2023-05-10T03:11:19.243Z,5.15
2023-05-10T03:14:25.347Z,5.21
2023-05-10T03:17:21.677Z,5.19
2023-05-10T03:20:00.395Z,5.20
2023-05-10T03:22:38.394Z,5.22
2023-05-10T03:25:09.589Z,5.24
2023-05-10T03:27:40.236Z,5.26
2023-05-10T03:30:13.778Z,5.30
2023-05-10T03:32:43.410Z,5.35
2023-05-10T03:35:13.607Z,5.39
2023-05-10T03:37:41.834Z,5.41
2023-05-10T03:40:10.224Z,5.44
2023-05-10T03:42:40.066Z,5.46
2023-05-10T03:45:09.375Z,5.45
2023-05-10T03:47:37.436Z,5.45
2023-05-10T03:50:06.990Z,5.44
2023-05-10T03:52:35.034Z,5.40
2023-05-10T03:55:04.948Z,5.36
2023-05-10T03:57:33.375Z,5.34
2023-05-10T04:00:01.964Z,5.32
2023-05-10T04:02:31.445Z,5.32
2023-05-10T04:04:59.574Z,5.36
2023-05-10T04:07:27.603Z,5.41
2023-05-10T04:09:55.543Z,5.44
2023-05-10T04:12:24.240Z,5.47
2023-05-10T04:14:52.292Z,5.48
2023-05-10T04:17:20.503Z,5.48
2023-05-10T04:19:48.746Z,5.47
2023-05-10T04:22:17.229Z,5.47
2023-05-10T04:24:45.402Z,5.49
2023-05-10T04:27:13.510Z,5.52
2023-05-10T04:29:41.417Z,5.60
2023-05-10T04:32:11.305Z,5.66
2023-05-10T04:34:39.412Z,5.75
2023-05-10T04:37:08.727Z,5.84
2023-05-10T04:39:36.861Z,5.94
2023-05-10T04:42:06.816Z,6.07
2023-05-10T04:44:34.812Z,6.16
2023-05-10T04:47:03.998Z,6.25
2023-05-10T04:49:31.906Z,6.33
2023-05-10T04:51:59.927Z,6.40
2023-05-10T04:54:28.173Z,6.47
2023-05-10T04:56:56.817Z,6.54
2023-05-10T04:59:25.401Z,6.64
2023-05-10T05:01:53.457Z,6.76
2023-05-10T05:04:21.398Z,6.87
2023-05-10T05:06:50.602Z,6.96
2023-05-10T05:09:19.913Z,7.06
2023-05-10T05:11:48.104Z,7.17
2023-05-10T05:14:16.316Z,7.24
2023-05-10T05:16:44.647Z,7.30
2023-05-10T05:19:12.864Z,7.51
2023-05-10T05:21:41.138Z,8.08
2023-05-10T05:24:09.376Z,8.73
2023-05-10T05:26:37.912Z,9.33
2023-05-10T05:29:06.145Z,9.90
2023-05-10T05:31:34.365Z,10.41
2023-05-10T05:34:02.620Z,10.97
2023-05-10T05:36:32.926Z,11.54
2023-05-10T05:39:01.348Z,11.99
2023-05-10T05:41:29.330Z,12.50
2023-05-10T05:43:57.331Z,12.80
2023-05-10T05:46:25.705Z,13.07
2023-05-10T05:48:53.827Z,13.48
2023-05-10T05:51:22.374Z,13.92
2023-05-10T05:53:51.011Z,14.28
2023-05-10T05:56:25.496Z,14.57
2023-05-10T05:58:54.103Z,14.73
2023-05-10T06:01:22.505Z,14.96
2023-05-10T06:03:52.674Z,15.14
2023-05-10T06:06:22.027Z,15.33
2023-05-10T06:08:50.893Z,15.58
2023-05-10T06:11:19.168Z,15.77
2023-05-10T06:13:48.271Z,15.78
2023-05-10T06:16:16.697Z,16.08
2023-05-10T06:18:45.286Z,16.41
2023-05-10T06:21:13.578Z,16.56
2023-05-10T06:23:42.008Z,16.60
2023-05-10T06:26:10.252Z,16.56
2023-05-10T06:28:41.289Z,16.47
2023-05-10T06:31:09.791Z,16.59
2023-05-10T06:33:38.067Z,16.75
2023-05-10T06:36:06.653Z,16.65
2023-05-10T06:38:34.874Z,16.49
2023-05-10T06:41:03.370Z,16.51
2023-05-10T06:43:31.814Z,16.69
2023-05-10T06:46:00.051Z,16.68
2023-05-10T06:48:30.573Z,16.55
2023-05-10T06:50:58.917Z,16.62
2023-05-10T06:53:27.162Z,16.66
2023-05-10T06:55:55.597Z,16.75
2023-05-10T06:58:24.753Z,16.86
2023-05-10T07:00:53.052Z,16.85
2023-05-10T07:03:21.674Z,17.06
2023-05-10T07:05:50.034Z,17.06
2023-05-10T07:08:19.771Z,16.74
2023-05-10T07:10:48.102Z,16.77
2023-05-10T07:13:16.422Z,16.90
2023-05-10T07:15:44.617Z,16.75
2023-05-10T07:18:12.924Z,16.50
2023-05-10T07:20:41.912Z,16.54
2023-05-10T07:23:10.265Z,16.40
2023-05-10T07:25:39.214Z,16.18
2023-05-10T07:28:08.128Z,16.25
2023-05-10T07:30:37.980Z,16.34
2023-05-10T07:33:06.442Z,16.56
2023-05-10T07:35:34.667Z,16.60
2023-05-10T07:38:03.654Z,16.42
2023-05-10T07:40:32.406Z,16.41
2023-05-10T07:43:03.559Z,16.30
2023-05-10T07:45:31.831Z,16.10
2023-05-10T07:48:00.617Z,16.06
2023-05-10T07:50:29.079Z,16.28
2023-05-10T07:52:59.852Z,16.58
2023-05-10T07:55:28.300Z,16.74
2023-05-10T07:57:56.831Z,16.84
2023-05-10T08:00:25.208Z,16.75
2023-05-10T08:02:54.219Z,16.70
2023-05-10T08:05:22.545Z,16.83
2023-05-10T08:07:54.277Z,16.85
2023-05-10T08:10:23.051Z,16.92
2023-05-10T08:12:51.279Z,16.93
2023-05-10T08:15:19.784Z,16.87
2023-05-10T08:17:48.846Z,16.97
2023-05-10T08:20:20.300Z,17.20
2023-05-10T08:22:51.220Z,17.21
2023-05-10T08:25:20.574Z,17.20
2023-05-10T08:27:48.922Z,17.28
2023-05-10T08:30:17.416Z,17.11
2023-05-10T08:32:45.969Z,17.03
2023-05-10T08:35:14.484Z,16.93
2023-05-10T08:37:43.021Z,16.80
2023-05-10T08:40:13.122Z,16.85
2023-05-10T08:42:49.301Z,16.73
2023-05-10T08:45:20.462Z,16.53
2023-05-10T08:47:49.237Z,16.56
2023-05-10T08:50:21.259Z,16.52
2023-05-10T08:52:53.369Z,16.43
2023-05-10T08:55:21.740Z,16.28
2023-05-10T08:57:50.475Z,16.10
2023-05-10T09:00:19.879Z,16.07
2023-05-10T09:02:50.881Z,16.03
2023-05-10T09:05:19.704Z,15.85
2023-05-10T09:07:48.663Z,15.80
2023-05-10T09:10:17.367Z,15.79
2023-05-10T09:12:49.133Z,15.86
2023-05-10T09:15:20.417Z,15.81
2023-05-10T09:17:50.307Z,15.72
2023-05-10T09:20:18.910Z,15.76
2023-05-10T09:22:47.667Z,15.71
2023-05-10T09:25:17.980Z,15.61
2023-05-10T09:27:48.699Z,15.59
2023-05-10T09:30:28.848Z,15.53
2023-05-10T09:32:58.760Z,15.55
2023-05-10T09:35:29.953Z,15.62
2023-05-10T09:38:04.645Z,15.72
2023-05-10T09:40:33.474Z,15.90
2023-05-10T09:43:04.007Z,15.97
2023-05-10T09:45:35.547Z,15.96
2023-05-10T09:48:05.957Z,16.07
2023-05-10T09:50:35.255Z,16.40
2023-05-10T09:53:05.099Z,16.59
2023-05-10T09:55:41.407Z,16.63
2023-05-10T09:58:12.566Z,16.68
2023-05-10T10:00:42.866Z,16.63
2023-05-10T10:03:18.697Z,16.50
2023-05-10T10:05:48.471Z,16.30
2023-05-10T10:08:17.872Z,16.15
2023-05-10T10:10:47.543Z,16.01
2023-05-10T10:13:16.778Z,15.94
2023-05-10T10:15:46.028Z,16.17
2023-05-10T10:18:16.814Z,16.52
2023-05-10T10:20:46.251Z,16.86
2023-05-10T10:23:17.331Z,17.16
2023-05-10T10:25:50.007Z,17.25
2023-05-10T10:28:40.930Z,17.27
2023-05-10T10:31:25.332Z,17.33
2023-05-10T10:34:09.929Z,17.38
2023-05-10T10:36:47.097Z,17.21
2023-05-10T10:39:16.272Z,17.12
2023-05-10T10:41:57.968Z,16.99
2023-05-10T10:44:34.641Z,17.05
2023-05-10T10:47:07.141Z,17.12
2023-05-10T10:49:42.620Z,17.03
2023-05-10T10:52:15.146Z,16.92
2023-05-10T10:54:51.702Z,16.88
2023-05-10T10:57:22.894Z,16.81
2023-05-10T10:59:51.343Z,16.89
2023-05-10T11:02:44.332Z,16.86
2023-05-10T11:05:37.434Z,16.79
2023-05-10T11:08:30.179Z,16.88
2023-05-10T11:11:01.719Z,16.87
2023-05-10T11:13:44.542Z,16.80
2023-05-10T11:16:26.619Z,16.83
2023-05-10T11:18:58.707Z,16.83
2023-05-10T11:21:27.296Z,16.73
2023-05-10T11:23:58.643Z,16.64
2023-05-10T11:26:36.426Z,16.56
2023-05-10T11:29:06.202Z,16.37
2023-05-10T11:31:35.006Z,16.20
2023-05-10T11:34:03.336Z,16.18
2023-05-10T11:36:36.144Z,16.36
2023-05-10T11:39:05.472Z,16.56
2023-05-10T11:41:34.249Z,16.64
2023-05-10T11:44:03.610Z,16.68
2023-05-10T11:46:32.546Z,16.64
2023-05-10T11:49:05.526Z,16.64
2023-05-10T11:51:40.443Z,16.64
2023-05-10T11:54:12.151Z,16.78
2023-05-10T11:56:42.005Z,16.83
2023-05-10T11:59:10.464Z,16.85
2023-05-10T12:01:39.103Z,16.95
2023-05-10T12:04:08.210Z,17.00
2023-05-10T12:06:42.016Z,17.00
2023-05-10T12:09:10.461Z,17.01
2023-05-10T12:11:44.183Z,16.98
2023-05-10T12:14:13.241Z,17.08
2023-05-10T12:16:42.073Z,17.19
2023-05-10T12:19:10.511Z,17.29
2023-05-10T12:21:40.155Z,17.35
2023-05-10T12:24:09.095Z,17.35
2023-05-10T12:29:20.512Z,17.17
2023-05-10T12:32:01.159Z,17.07
2023-05-10T12:34:35.457Z,17.11
2023-05-10T12:37:04.588Z,17.13
2023-05-10T12:39:44.007Z,17.24
2023-05-10T12:42:12.806Z,17.27
2023-05-10T12:44:41.292Z,17.31
2023-05-10T12:47:09.758Z,17.49
2023-05-10T12:49:39.305Z,17.68
2023-05-10T12:52:07.545Z,17.80
2023-05-10T12:54:37.122Z,17.81
2023-05-10T12:57:05.840Z,17.84
2023-05-10T12:59:35.961Z,17.86
2023-05-10T13:02:06.098Z,17.82
2023-05-10T13:04:34.553Z,17.63
2023-05-10T13:07:03.569Z,17.74
2023-05-10T13:09:31.982Z,17.92
2023-05-10T13:12:00.565Z,18.07
2023-05-10T13:14:29.220Z,18.14
2023-05-10T13:16:57.907Z,18.09
2023-05-10T13:19:27.075Z,18.08
2023-05-10T13:21:55.427Z,18.18
2023-05-10T13:24:25.158Z,18.15
2023-05-10T13:26:53.362Z,18.15
2023-05-10T13:29:22.196Z,18.14
2023-05-10T13:31:50.897Z,18.11
2023-05-10T13:34:21.528Z,18.06
2023-05-10T13:36:50.035Z,18.06
2023-05-10T13:39:18.482Z,18.03
2023-05-10T13:41:47.046Z,18.00
2023-05-10T13:44:16.204Z,17.91
2023-05-10T13:46:44.803Z,17.79
2023-05-10T13:49:13.202Z,17.55
2023-05-10T13:51:41.554Z,17.50
2023-05-10T13:54:12.008Z,17.61
2023-05-10T13:56:43.567Z,17.64
2023-05-10T13:59:11.864Z,17.59
2023-05-10T14:01:41.073Z,17.72
2023-05-10T14:04:11.466Z,17.85
2023-05-10T14:06:40.152Z,17.98
2023-05-10T14:09:08.726Z,18.17
2023-05-10T14:11:37.075Z,18.33
2023-05-10T14:14:05.713Z,18.30
2023-05-10T14:16:34.592Z,18.39
2023-05-10T14:19:03.968Z,18.52
2023-05-10T14:21:32.552Z,18.52
2023-05-10T14:24:01.414Z,18.36
2023-05-10T14:26:30.931Z,18.28
2023-05-10T14:29:00.438Z,18.32
2023-05-10T14:31:31.416Z,18.42
2023-05-10T14:34:00.383Z,18.45
2023-05-10T14:36:29.122Z,18.46
2023-05-10T14:38:59.099Z,18.58
2023-05-10T14:41:27.948Z,18.49
2023-05-10T14:43:56.419Z,18.40
2023-05-10T14:46:25.055Z,18.48
2023-05-10T14:48:53.245Z,18.56
2023-05-10T14:51:23.092Z,18.56
2023-05-10T14:53:51.384Z,18.46
2023-05-10T14:56:19.624Z,18.51
2023-05-10T14:58:47.703Z,18.59
2023-05-10T15:01:15.909Z,18.61
2023-05-10T15:03:44.665Z,18.64
2023-05-10T15:06:16.373Z,18.53
2023-05-10T15:08:44.899Z,18.09
2023-05-10T15:11:13.096Z,17.76
2023-05-10T15:13:41.430Z,17.61
2023-05-10T15:16:11.877Z,17.58
2023-05-10T15:18:40.377Z,17.66
2023-05-10T15:21:08.860Z,17.64
2023-05-10T15:23:37.337Z,17.65
2023-05-10T15:26:06.302Z,17.65
2023-05-10T15:28:34.558Z,17.64
2023-05-10T15:31:02.884Z,17.69
2023-05-10T15:33:31.000Z,17.68
2023-05-10T15:35:59.057Z,17.54
2023-05-10T15:38:27.354Z,17.51
2023-05-10T15:40:59.272Z,17.48
2023-05-10T15:43:30.723Z,17.52
2023-05-10T15:45:59.337Z,17.53
2023-05-10T15:48:27.813Z,17.41
2023-05-10T15:50:57.084Z,17.23
2023-05-10T15:53:25.901Z,17.12
2023-05-10T15:55:54.666Z,16.96
2023-05-10T15:58:23.053Z,16.93
2023-05-10T16:00:51.728Z,16.92
2023-05-10T16:03:19.904Z,16.84
2023-05-10T16:05:48.269Z,16.81
2023-05-10T16:08:16.466Z,16.90
2023-05-10T16:10:44.837Z,16.95
2023-05-10T16:13:15.213Z,16.91
2023-05-10T16:15:43.632Z,16.92
2023-05-10T16:18:12.665Z,16.86
2023-05-10T16:20:41.162Z,16.78
2023-05-10T16:23:10.052Z,16.72
2023-05-10T16:25:38.632Z,16.64
2023-05-10T16:28:06.924Z,16.60
2023-05-10T16:30:35.267Z,16.61
2023-05-10T16:33:04.151Z,16.61
2023-05-10T16:35:32.513Z,16.50
2023-05-10T16:38:02.286Z,16.50
2023-05-10T16:40:31.552Z,16.57
2023-05-10T16:43:00.467Z,16.61
2023-05-10T16:45:32.223Z,16.59
2023-05-10T16:48:02.505Z,16.58
2023-05-10T16:50:31.060Z,16.56
2023-05-10T16:52:59.584Z,16.48
2023-05-10T16:55:27.627Z,16.47
2023-05-10T16:58:01.172Z,16.42
2023-05-10T17:00:29.547Z,16.38
2023-05-10T17:02:57.752Z,16.29
2023-05-10T17:05:26.795Z,16.24
2023-05-10T17:07:56.288Z,16.18
2023-05-10T17:10:25.128Z,16.05
2023-05-10T17:12:53.933Z,15.93
2023-05-10T17:15:22.363Z,15.81
2023-05-10T17:17:50.381Z,15.72
2023-05-10T17:20:18.841Z,15.59
2023-05-10T17:22:46.828Z,15.46
2023-05-10T17:25:15.314Z,15.30
2023-05-10T17:27:44.199Z,15.11
2023-05-10T17:30:13.413Z,14.94
2023-05-10T17:32:41.646Z,14.79
2023-05-10T17:35:09.962Z,14.66
2023-05-10T17:37:38.596Z,14.50
2023-05-10T17:40:08.345Z,14.33
2023-05-10T17:42:36.601Z,14.17
2023-05-10T17:45:05.067Z,14.05
2023-05-10T17:47:33.148Z,13.93
2023-05-10T17:50:01.323Z,13.79
2023-05-10T17:52:31.375Z,13.67
2023-05-10T17:55:01.128Z,13.55
2023-05-10T17:57:29.714Z,13.44
2023-05-10T17:59:57.860Z,13.34
2023-05-10T18:02:26.180Z,13.23
2023-05-10T18:04:58.211Z,13.14
2023-05-10T18:07:30.097Z,13.03
2023-05-10T18:09:58.467Z,12.93
2023-05-10T18:12:27.057Z,12.83
2023-05-10T18:14:55.938Z,12.74
2023-05-10T18:17:24.984Z,12.64
2023-05-10T18:19:52.912Z,12.55
2023-05-10T18:22:21.293Z,12.46
2023-05-10T18:24:49.387Z,12.37
2023-05-10T18:27:18.056Z,12.29
2023-05-10T18:29:46.574Z,12.20
2023-05-10T18:32:14.760Z,12.11
2023-05-10T18:34:42.706Z,12.01
2023-05-10T18:37:10.900Z,11.93
2023-05-10T18:39:39.011Z,11.86
2023-05-10T18:42:07.788Z,11.78
2023-05-10T18:44:35.997Z,11.71
2023-05-10T18:47:04.240Z,11.64
2023-05-10T18:49:32.407Z,11.57
2023-05-10T18:52:00.660Z,11.49
2023-05-10T18:54:30.005Z,11.44
2023-05-10T18:56:59.045Z,11.37
2023-05-10T18:59:28.133Z,11.31
2023-05-10T19:01:57.428Z,11.28
2023-05-10T19:04:26.053Z,11.24
2023-05-10T19:06:54.351Z,11.19
2023-05-10T19:09:22.999Z,11.14
2023-05-10T19:11:52.114Z,11.10
2023-05-10T19:14:20.947Z,11.05
2023-05-10T19:16:49.032Z,11.01
2023-05-10T19:19:17.029Z,10.95
2023-05-10T19:21:47.059Z,10.90
2023-05-10T19:24:15.165Z,10.84
2023-05-10T19:26:43.806Z,10.77
2023-05-10T19:29:11.926Z,10.72
2023-05-10T19:31:40.391Z,10.66
2023-05-10T19:34:08.561Z,10.60
2023-05-10T19:36:36.838Z,10.57
2023-05-10T19:39:04.982Z,10.52
2023-05-10T19:41:33.770Z,10.47
2023-05-10T19:44:01.844Z,10.44
2023-05-10T19:46:31.133Z,10.41
2023-05-10T19:48:59.130Z,10.36
2023-05-10T19:51:27.211Z,10.32
2023-05-10T19:53:55.189Z,10.27
2023-05-10T19:56:23.204Z,10.24
2023-05-10T19:58:51.290Z,10.25
2023-05-10T20:01:19.261Z,10.27
2023-05-10T20:03:47.744Z,10.31
2023-05-10T20:06:17.007Z,10.34
2023-05-10T20:08:45.866Z,10.33
2023-05-10T20:11:13.854Z,10.30
2023-05-10T20:13:43.657Z,10.25
2023-05-10T20:16:13.663Z,10.22
2023-05-10T20:18:42.520Z,10.19
2023-05-10T20:21:10.623Z,10.19
2023-05-10T20:23:38.860Z,10.18
2023-05-10T20:26:06.839Z,10.16
2023-05-10T20:28:35.133Z,10.15
2023-05-10T20:31:03.593Z,10.14
2023-05-10T20:33:32.459Z,10.14
2023-05-10T20:36:00.735Z,10.10
2023-05-10T20:38:29.028Z,10.04
2023-05-10T20:40:57.496Z,10.02
2023-05-10T20:43:26.312Z,10.00
2023-05-10T20:45:55.102Z,9.99
2023-05-10T20:48:23.795Z,9.97
2023-05-10T20:50:51.885Z,9.95
2023-05-10T20:53:19.863Z,9.92
2023-05-10T20:55:47.819Z,9.94
2023-05-10T20:58:15.979Z,9.92
2023-05-10T21:00:44.036Z,9.90
2023-05-10T21:03:12.197Z,9.86
2023-05-10T21:05:40.633Z,9.80
2023-05-10T21:08:08.626Z,9.73
2023-05-10T21:10:36.854Z,9.69
2023-05-10T21:13:04.932Z,9.66
2023-05-10T21:15:33.014Z,9.66
2023-05-10T21:18:01.177Z,9.66
2023-05-10T21:20:30.146Z,9.66
2023-05-10T21:22:58.522Z,9.67
2023-05-10T21:25:26.868Z,9.67
2023-05-10T21:27:55.136Z,9.64
2023-05-10T21:30:23.436Z,9.60
2023-05-10T21:32:51.578Z,9.53
2023-05-10T21:35:19.578Z,9.45
2023-05-10T21:37:47.600Z,9.37
2023-05-10T21:40:15.801Z,9.29
2023-05-10T21:42:49.614Z,9.22
2023-05-10T21:45:19.318Z,9.16
2023-05-10T21:47:47.294Z,9.12
2023-05-10T21:50:15.506Z,9.08
2023-05-10T21:52:43.670Z,9.04
2023-05-10T21:55:11.763Z,9.01
2023-05-10T21:57:39.692Z,8.97
2023-05-10T22:00:10.243Z,8.90
2023-05-10T22:02:40.728Z,8.83
2023-05-10T22:05:09.341Z,8.77
2023-05-10T22:07:37.454Z,8.71
2023-05-10T22:10:06.099Z,8.64
2023-05-10T22:12:34.030Z,8.58
2023-05-10T22:17:33.397Z,8.47
2023-05-10T22:20:01.389Z,8.40
2023-05-10T22:22:29.317Z,8.34
2023-05-10T22:24:57.248Z,8.32
2023-05-10T22:27:25.346Z,8.31
2023-05-10T22:29:53.348Z,8.31
2023-05-10T22:32:21.297Z,8.33
2023-05-10T22:34:49.261Z,8.37
2023-05-10T22:37:18.081Z,8.39
2023-05-10T22:39:46.987Z,8.44
2023-05-10T22:42:15.131Z,8.45
2023-05-10T22:44:44.415Z,8.44
2023-05-10T22:47:12.757Z,8.40
2023-05-10T22:49:40.890Z,8.36
2023-05-10T22:52:09.649Z,8.33
2023-05-10T22:54:37.852Z,8.28
2023-05-10T22:57:06.167Z,8.22
2023-05-10T22:59:34.381Z,8.17
2023-05-10T23:02:02.492Z,8.11
2023-05-10T23:04:30.608Z,8.07
2023-05-10T23:06:59.052Z,8.02
2023-05-10T23:09:27.006Z,7.99
2023-05-10T23:11:55.153Z,7.96
2023-05-10T23:14:23.072Z,7.93
2023-05-10T23:16:54.229Z,7.90
2023-05-10T23:19:22.375Z,7.84
2023-05-10T23:21:50.351Z,7.79
2023-05-10T23:24:18.357Z,7.74
2023-05-10T23:26:46.715Z,7.71
2023-05-10T23:29:14.877Z,7.68
2023-05-10T23:31:45.777Z,7.62
2023-05-10T23:34:13.830Z,7.57
2023-05-10T23:36:41.779Z,7.53
2023-05-10T23:39:09.784Z,7.52
2023-05-10T23:41:38.351Z,7.47
2023-05-10T23:44:06.331Z,7.41
2023-05-10T23:46:34.299Z,7.38
2023-05-10T23:49:02.260Z,7.36
2023-05-10T23:51:30.385Z,7.35
2023-05-10T23:53:59.151Z,7.36
2023-05-10T23:56:27.405Z,7.39
2023-05-10T23:58:55.554Z,7.40
